createdAt,value
2018-09-22T00:04:57.712Z,1.70
2018-09-22T00:09:58.432Z,1.93
2018-09-22T00:14:56.415Z,2.23
2018-09-22T00:19:54.325Z,2.10
2018-09-22T00:24:52.517Z,2.87
2018-09-22T00:29:50.432Z,2.00
2018-09-22T00:34:48.156Z,2.67
2018-09-22T00:39:49.449Z,1.57
2018-09-22T00:44:47.403Z,3.40
2018-09-22T00:49:45.143Z,2.60
2018-09-22T00:54:42.984Z,1.60
2018-09-22T00:59:41.064Z,2.77
2018-09-22T01:04:39.092Z,2.00
2018-09-22T01:09:42.149Z,1.83
2018-09-22T01:14:40.831Z,1.07
2018-09-22T01:19:38.871Z,2.60
2018-09-22T01:24:37.314Z,1.80
2018-09-22T01:29:35.680Z,1.67
2018-09-22T01:34:33.795Z,1.50
2018-09-22T01:39:37.938Z,1.30
2018-09-22T01:44:35.909Z,2.67
2018-09-22T01:49:33.820Z,1.97
2018-09-22T01:54:31.883Z,1.57
2018-09-22T01:59:29.917Z,1.40
2018-09-22T02:04:28.008Z,1.57
2018-09-22T02:09:34.031Z,1.80
2018-09-22T02:14:32.383Z,1.63
2018-09-22T02:19:39.788Z,1.80
2018-09-22T02:24:37.805Z,1.40
2018-09-22T02:29:36.020Z,2.33
2018-09-22T02:34:34.088Z,1.50
2018-09-22T02:39:37.406Z,2.03
2018-09-22T02:44:35.657Z,2.90
2018-09-22T02:49:33.498Z,1.47
2018-09-22T02:54:31.619Z,1.90
2018-09-22T02:59:29.461Z,2.70
2018-09-22T03:04:27.640Z,1.67
2018-09-22T03:09:38.051Z,1.90
2018-09-22T03:14:36.488Z,1.07
2018-09-22T03:19:34.407Z,2.90
2018-09-22T03:24:32.390Z,1.90
2018-09-22T03:29:30.396Z,1.70
2018-09-22T03:34:28.301Z,2.40
2018-09-22T03:39:31.248Z,2.13
2018-09-22T03:44:29.792Z,2.77
2018-09-22T03:49:28.057Z,2.03
2018-09-22T03:54:25.969Z,3.00
2018-09-22T03:59:24.057Z,3.70
2018-09-22T04:04:22.458Z,3.93
2018-09-22T04:09:29.630Z,4.53
2018-09-22T04:14:27.553Z,3.83
2018-09-22T04:19:25.516Z,3.77
2018-09-22T04:24:23.346Z,4.17
2018-09-22T04:29:21.590Z,3.70
2018-09-22T04:34:19.828Z,3.47
2018-09-22T04:39:18.967Z,3.17
2018-09-22T04:44:18.280Z,3.73
2018-09-22T04:49:16.500Z,5.10
2018-09-22T04:54:14.703Z,3.23
2018-09-22T04:59:12.732Z,3.57
2018-09-22T05:04:10.716Z,3.17
2018-09-22T05:09:12.381Z,4.10
2018-09-22T05:14:10.869Z,3.70
2018-09-22T05:19:08.972Z,3.47
2018-09-22T05:24:06.852Z,3.70
2018-09-22T05:29:05.158Z,3.70
2018-09-22T05:34:03.090Z,2.77
2018-09-22T05:39:01.903Z,4.10
2018-09-22T05:44:00.903Z,2.63
2018-09-22T05:49:00.228Z,3.00
2018-09-22T05:53:58.383Z,3.30
2018-09-22T05:58:56.338Z,2.30
2018-09-22T06:03:54.525Z,2.30
2018-09-22T06:08:54.201Z,2.90
2018-09-22T06:13:54.999Z,3.23
2018-09-22T06:18:54.343Z,2.50
2018-09-22T06:23:54.202Z,2.40
2018-09-22T06:28:55.361Z,2.13
2018-09-22T06:33:57.057Z,2.50
2018-09-22T06:38:57.942Z,2.50
2018-09-22T06:43:59.540Z,4.50
2018-09-22T06:48:58.367Z,3.63
2018-09-22T06:53:57.956Z,2.60
2018-09-22T06:58:57.695Z,2.90
2018-09-22T07:03:58.502Z,3.67
2018-09-22T07:08:57.158Z,2.83
2018-09-22T07:13:58.346Z,2.47
2018-09-22T07:18:58.227Z,2.07
2018-09-22T07:23:57.073Z,2.90
2018-09-22T07:28:56.915Z,1.97
2018-09-22T07:33:55.510Z,3.30
2018-09-22T07:38:56.964Z,3.00
2018-09-22T07:43:56.699Z,2.77
2018-09-22T07:48:55.784Z,2.70
2018-09-22T07:53:59.966Z,3.20
2018-09-22T07:58:59.890Z,3.30
2018-09-22T08:03:59.669Z,3.20
2018-09-22T08:08:59.809Z,3.30
2018-09-22T08:14:04.139Z,3.40
2018-09-22T08:19:06.850Z,2.23
2018-09-22T08:24:08.499Z,2.70
2018-09-22T08:29:09.358Z,2.97
2018-09-22T08:34:09.645Z,3.10
2018-09-22T08:39:17.852Z,4.67
2018-09-22T08:44:18.454Z,2.20
2018-09-22T08:49:20.559Z,2.53
2018-09-22T08:54:21.406Z,2.30
2018-09-22T08:59:22.706Z,2.40
2018-09-22T09:04:27.122Z,2.23
2018-09-22T09:09:33.397Z,2.40
2018-09-22T09:14:36.579Z,1.87
2018-09-22T09:19:42.307Z,2.40
2018-09-22T09:24:44.669Z,2.20
2018-09-22T09:29:49.558Z,2.10
2018-09-22T09:34:48.852Z,2.13
2018-09-22T09:40:01.459Z,1.10
2018-09-22T09:45:04.226Z,2.43
2018-09-22T09:50:08.460Z,2.40
2018-09-22T09:55:09.845Z,2.10
2018-09-22T10:00:11.156Z,1.70
2018-09-22T10:05:11.558Z,2.43
2018-09-22T10:10:12.992Z,2.67
2018-09-22T10:15:16.091Z,1.80
2018-09-22T10:20:18.658Z,1.27
2018-09-22T10:25:17.719Z,1.90
2018-09-22T10:30:22.515Z,2.10
2018-09-22T10:35:25.199Z,2.73
2018-09-22T10:40:30.106Z,2.20
2018-09-22T10:45:44.328Z,3.30
2018-09-22T10:50:49.198Z,3.47
2018-09-22T10:55:56.318Z,2.20
2018-09-22T11:00:59.852Z,2.67
2018-09-22T11:06:02.405Z,2.37
2018-09-22T11:11:06.625Z,2.27
2018-09-22T11:16:06.385Z,2.70
2018-09-22T11:21:14.674Z,2.27
2018-09-22T11:26:17.177Z,3.63
2018-09-22T11:31:31.763Z,1.83
2018-09-22T11:36:33.060Z,1.57
2018-09-22T11:41:32.367Z,2.10
2018-09-22T11:46:31.172Z,1.10
2018-09-22T11:51:33.658Z,2.90
2018-09-22T11:56:34.307Z,2.30
2018-09-22T12:01:36.504Z,1.53
2018-09-22T12:06:36.909Z,2.10
2018-09-22T12:11:37.242Z,1.73
2018-09-22T12:16:36.505Z,2.20
2018-09-22T12:21:40.076Z,1.70
2018-09-22T12:26:41.612Z,1.57
2018-09-22T12:31:44.140Z,1.30
2018-09-22T12:36:42.946Z,2.30
2018-09-22T12:41:44.742Z,1.57
2018-09-22T12:46:47.117Z,2.83
2018-09-22T12:51:48.259Z,1.90
2018-09-22T12:56:47.580Z,1.60
2018-09-22T13:01:48.144Z,1.47
2018-09-22T13:06:48.300Z,1.43
2018-09-22T13:11:50.295Z,1.33
2018-09-22T13:16:51.971Z,1.40
2018-09-22T13:21:54.469Z,1.00
2018-09-22T13:26:54.013Z,1.10
2018-09-22T13:31:58.815Z,1.37
2018-09-22T13:37:03.974Z,1.57
2018-09-22T13:42:05.002Z,1.80
2018-09-22T13:47:05.825Z,1.53
2018-09-22T13:52:04.348Z,1.10
2018-09-22T13:57:05.570Z,1.40
2018-09-22T14:02:05.592Z,1.87
2018-09-22T14:07:05.084Z,1.27
2018-09-22T14:12:05.372Z,1.00
2018-09-22T14:17:08.889Z,1.20
2018-09-22T14:22:08.840Z,1.40
2018-09-22T14:27:08.963Z,1.50
2018-09-22T14:32:09.809Z,1.40
2018-09-22T14:37:12.032Z,1.53
2018-09-22T14:42:12.248Z,1.10
2018-09-22T14:47:11.142Z,1.03
2018-09-22T14:52:10.448Z,1.70
2018-09-22T14:57:10.352Z,1.57
2018-09-22T15:02:11.087Z,1.83
2018-09-22T15:07:09.527Z,1.33
2018-09-22T15:12:15.440Z,1.47
2018-09-22T15:17:14.686Z,1.03
2018-09-22T15:22:14.786Z,2.17
2018-09-22T15:27:16.967Z,1.40
2018-09-22T15:32:16.772Z,1.27
2018-09-22T15:37:15.240Z,1.67
2018-09-22T15:42:14.287Z,3.07
2018-09-22T15:47:14.976Z,3.50
2018-09-22T15:52:17.830Z,2.23
2018-09-22T15:57:18.255Z,1.50
2018-09-22T16:02:17.443Z,1.90
2018-09-22T16:07:18.158Z,1.60
2018-09-22T16:12:19.185Z,1.53
2018-09-22T16:17:18.444Z,1.20
2018-09-22T16:22:18.653Z,1.50
2018-09-22T16:27:19.052Z,1.60
2018-09-22T16:32:18.809Z,1.70
2018-09-22T16:37:20.747Z,5.57
2018-09-22T16:42:20.989Z,3.00
2018-09-22T16:47:21.332Z,3.03
2018-09-22T16:52:20.272Z,3.60
2018-09-22T16:57:20.085Z,3.37
2018-09-22T17:02:20.831Z,4.43
2018-09-22T17:07:20.318Z,2.80
2018-09-22T17:12:19.338Z,1.93
2018-09-22T17:17:21.719Z,2.27
2018-09-22T17:22:20.899Z,2.63
2018-09-22T17:27:22.176Z,2.23
2018-09-22T17:32:21.281Z,2.50
2018-09-22T17:37:19.952Z,2.20
2018-09-22T17:42:19.060Z,2.77
2018-09-22T17:47:18.691Z,3.50
2018-09-22T17:52:17.279Z,3.63
2018-09-22T17:57:16.081Z,3.27
2018-09-22T18:02:14.359Z,5.70
2018-09-22T18:07:12.482Z,4.20
2018-09-22T18:12:11.513Z,3.83
2018-09-22T18:17:11.215Z,4.57
2018-09-22T18:22:09.776Z,4.73
2018-09-22T18:27:08.792Z,5.43
2018-09-22T18:32:09.235Z,5.47
2018-09-22T18:37:08.599Z,4.67
2018-09-22T18:42:07.118Z,5.23
2018-09-22T18:47:07.448Z,5.60
2018-09-22T18:52:06.040Z,4.70
2018-09-22T18:57:04.618Z,5.77
2018-09-22T19:02:05.992Z,5.10
2018-09-22T19:07:05.101Z,6.10
2018-09-22T19:12:05.248Z,6.13
2018-09-22T19:17:11.895Z,6.50
2018-09-22T19:22:15.081Z,6.57
2018-09-22T19:27:26.186Z,6.30
2018-09-22T19:32:32.399Z,6.40
2018-09-22T19:37:42.075Z,5.70
2018-09-22T19:42:48.117Z,5.83
2018-09-22T19:47:53.977Z,6.73
2018-09-22T19:52:52.747Z,6.30
2018-09-22T19:57:55.226Z,6.23
2018-09-22T20:02:54.363Z,6.90
2018-09-22T20:07:57.863Z,5.80
2018-09-22T20:12:57.542Z,5.73
2018-09-22T20:17:55.916Z,6.17
2018-09-22T20:22:54.801Z,6.93
2018-09-22T20:27:53.335Z,7.63
2018-09-22T20:32:52.898Z,5.83
2018-09-22T20:37:51.520Z,6.73
2018-09-22T20:42:53.574Z,7.40
2018-09-22T20:47:54.825Z,7.90
2018-09-22T20:52:53.628Z,6.20
2018-09-22T20:57:52.846Z,6.10
2018-09-22T21:02:51.189Z,7.00
2018-09-22T21:07:50.249Z,6.73
2018-09-22T21:12:50.461Z,6.90
2018-09-22T21:17:51.381Z,5.63
2018-09-22T21:22:53.557Z,6.87
2018-09-22T21:27:53.166Z,8.70
2018-09-22T21:32:52.409Z,7.50
2018-09-22T21:37:51.846Z,8.40
2018-09-22T21:42:51.289Z,6.80
2018-09-22T21:47:49.441Z,8.37
2018-09-22T21:52:47.767Z,8.87
2018-09-22T21:57:47.752Z,9.13
2018-09-22T22:02:46.105Z,8.17
2018-09-22T22:07:44.521Z,8.80
2018-09-22T22:12:46.830Z,7.23
2018-09-22T22:17:45.808Z,9.00
2018-09-22T22:22:44.361Z,9.30
2018-09-22T22:27:44.737Z,10.33
2018-09-22T22:32:45.548Z,9.20
2018-09-22T22:37:44.800Z,10.23
2018-09-22T22:42:43.225Z,10.50
2018-09-22T22:47:43.334Z,11.50
2018-09-22T22:52:43.928Z,10.60
2018-09-22T22:57:42.658Z,12.37
2018-09-22T23:02:46.106Z,13.00
2018-09-22T23:07:47.030Z,13.37
2018-09-22T23:12:46.158Z,12.70
2018-09-22T23:17:44.984Z,13.10
2018-09-22T23:22:44.197Z,13.83
2018-09-22T23:27:43.460Z,14.27
2018-09-22T23:32:42.626Z,13.70
2018-09-22T23:37:41.892Z,13.27
2018-09-22T23:42:42.241Z,15.77
2018-09-22T23:47:41.941Z,15.60
2018-09-22T23:52:40.589Z,14.80
2018-09-22T23:57:40.255Z,16.77
